Time;durP1;ratioP1;P1;durP2;ratioP2;P2;SDS_P1;SDS_P2;PMS_P1;PMS_P2;Temp;Humidity;BMP_temperature;BMP_pressure;BME280_temperature;BME280_humidity;BME280_pressure;Samples;Min_cycle;Max_cycle;Signal;HPM_P1;HPM_P2
2023/05/13 00:00:37;;;;;;;15.80;12.77;;;14.20;99.90;;;;;;5016510;28;20198;-85
2023/05/13 00:03:03;;;;;;;17.57;13.83;;;14.20;99.90;;;;;;5017684;28;20424;-81
2023/05/13 00:05:28;;;;;;;14.50;12.50;;;14.20;99.90;;;;;;5017403;28;20464;-85
2023/05/13 00:07:54;;;;;;;15.73;12.57;;;14.10;99.90;;;;;;5017581;28;20292;-84
2023/05/13 00:10:20;;;;;;;15.30;13.20;;;14.10;99.90;;;;;;5016325;28;20203;-82
2023/05/13 00:12:46;;;;;;;15.30;13.43;;;14.10;99.90;;;;;;5016354;28;20412;-81
2023/05/13 00:15:12;;;;;;;14.37;12.27;;;14.10;99.90;;;;;;5016320;28;20191;-81
2023/05/13 00:17:37;;;;;;;17.47;12.47;;;14.10;99.90;;;;;;5017337;28;20405;-85
2023/05/13 00:20:04;;;;;;;15.90;12.97;;;14.10;99.90;;;;;;5017587;28;21099;-81
2023/05/13 00:22:29;;;;;;;13.97;11.97;;;14.10;99.90;;;;;;5016958;28;20179;-85
2023/05/13 00:24:55;;;;;;;13.33;11.20;;;14.10;99.90;;;;;;5018217;28;20971;-81
2023/05/13 00:27:25;;;;;;;14.50;11.60;;;14.00;99.90;;;;;;5015976;28;20296;-84
2023/05/13 00:29:51;;;;;;;15.53;11.67;;;14.00;99.90;;;;;;5016246;28;20215;-85
2023/05/13 00:32:17;;;;;;;13.13;11.70;;;14.00;99.90;;;;;;5017284;28;20447;-83
2023/05/13 00:34:42;;;;;;;14.63;10.97;;;13.90;99.90;;;;;;5016070;28;20273;-81
2023/05/13 00:37:09;;;;;;;15.53;11.67;;;13.90;99.90;;;;;;5015786;28;20636;-84
2023/05/13 00:39:35;;;;;;;15.03;11.93;;;14.00;99.90;;;;;;5015927;28;20708;-81
2023/05/13 00:42:03;;;;;;;18.07;11.33;;;13.90;99.90;;;;;;5017079;28;20491;-81
2023/05/13 00:44:29;;;;;;;14.70;11.53;;;14.00;99.90;;;;;;5017039;28;20179;-86
2023/05/13 00:46:55;;;;;;;13.93;11.00;;;13.90;99.90;;;;;;5015489;28;20526;-84
2023/05/13 00:49:21;;;;;;;15.13;11.00;;;13.90;99.90;;;;;;5017185;28;20428;-81
2023/05/13 00:51:47;;;;;;;12.67;11.10;;;13.90;99.90;;;;;;5015540;28;20794;-85
2023/05/13 00:54:12;;;;;;;13.50;10.20;;;13.90;99.90;;;;;;5015805;28;20179;-85
2023/05/13 00:56:38;;;;;;;12.40;11.10;;;13.80;99.90;;;;;;5016775;28;20940;-85
2023/05/13 00:59:04;;;;;;;15.40;10.37;;;13.80;99.90;;;;;;5015317;28;20194;-86
2023/05/13 01:01:46;;;;;;;12.00;10.73;;;13.70;99.90;;;;;;5016580;28;20253;-84
2023/05/13 01:04:33;;;;;;;13.07;10.10;;;13.80;99.90;;;;;;5016871;28;20537;-87
2023/05/13 01:07:27;;;;;;;16.13;10.70;;;13.80;99.90;;;;;;5015220;28;20536;-81
2023/05/13 01:10:34;;;;;;;12.73;10.47;;;13.70;99.90;;;;;;5015360;28;20841;-81
2023/05/13 01:13:05;;;;;;;10.23;9.20;;;13.70;99.90;;;;;;5010571;28;20511;-82
2023/05/13 01:15:33;;;;;;;11.13;8.40;;;13.60;99.90;;;;;;5016391;28;20420;-85
2023/05/13 01:18:05;;;;;;;10.80;9.70;;;13.60;99.90;;;;;;5016350;28;20953;-81
2023/05/13 01:20:32;;;;;;;10.80;9.40;;;13.60;99.90;;;;;;5016266;28;20432;-81
2023/05/13 01:22:58;;;;;;;10.27;9.17;;;13.50;99.90;;;;;;5015135;28;20463;-81
2023/05/13 01:25:24;;;;;;;12.37;9.00;;;13.50;99.90;;;;;;5016135;28;20456;-86
2023/05/13 01:27:51;;;;;;;10.43;8.90;;;13.60;99.90;;;;;;5014862;28;20297;-81
2023/05/13 01:30:18;;;;;;;8.97;8.10;;;13.60;99.90;;;;;;5014893;28;20433;-81
2023/05/13 01:32:44;;;;;;;9.60;8.60;;;13.50;99.90;;;;;;5016451;28;20425;-85
2023/05/13 01:35:10;;;;;;;11.37;8.93;;;13.50;99.90;;;;;;5014854;28;20429;-83
2023/05/13 01:37:37;;;;;;;10.00;9.00;;;13.50;99.90;;;;;;5014491;28;20470;-85
2023/05/13 01:40:05;;;;;;;11.20;9.93;;;13.50;99.90;;;;;;5015877;28;20432;-86
2023/05/13 01:42:31;;;;;;;10.50;9.40;;;13.50;99.90;;;;;;5015829;28;20466;-81
2023/05/13 01:44:57;;;;;;;10.43;9.33;;;13.50;99.90;;;;;;5014738;28;20452;-85
2023/05/13 01:47:22;;;;;;;12.80;9.80;;;13.50;99.90;;;;;;5015726;28;20468;-81
2023/05/13 01:49:48;;;;;;;11.90;8.97;;;13.40;99.90;;;;;;5015546;28;20210;-85
2023/05/13 01:52:13;;;;;;;11.40;9.20;;;13.50;99.90;;;;;;5015786;28;20179;-81
2023/05/13 01:54:39;;;;;;;11.30;10.20;;;13.50;99.90;;;;;;5016117;28;20190;-81
2023/05/13 01:57:05;;;;;;;11.50;9.40;;;13.50;99.90;;;;;;5014376;28;20190;-84
2023/05/13 01:59:30;;;;;;;10.43;9.07;;;13.50;99.90;;;;;;5015990;28;20198;-85
2023/05/13 02:01:56;;;;;;;9.87;8.87;;;13.50;99.90;;;;;;5015346;28;20198;-84
2023/05/13 02:04:22;;;;;;;13.33;9.27;;;13.60;99.90;;;;;;5014094;28;20695;-85
2023/05/13 02:06:47;;;;;;;10.20;9.20;;;13.50;99.90;;;;;;5015522;28;20294;-85
2023/05/13 02:09:13;;;;;;;11.50;9.60;;;13.50;99.90;;;;;;5014394;28;20230;-86
2023/05/13 02:11:39;;;;;;;12.13;8.97;;;13.50;99.90;;;;;;5015482;28;20223;-85
2023/05/13 02:14:05;;;;;;;10.07;8.87;;;13.60;99.90;;;;;;5013382;28;20187;-85
2023/05/13 02:16:31;;;;;;;12.70;9.33;;;13.50;99.90;;;;;;5015408;28;20439;-85
2023/05/13 02:18:56;;;;;;;11.20;9.00;;;13.60;99.90;;;;;;5015205;28;20225;-81
2023/05/13 02:21:22;;;;;;;9.97;9.00;;;13.60;99.90;;;;;;5015798;28;20983;-87
2023/05/13 02:23:48;;;;;;;10.33;9.27;;;13.60;99.90;;;;;;5014848;28;20183;-86
2023/05/13 02:26:13;;;;;;;21.50;14.23;;;13.60;99.90;;;;;;5015902;28;20557;-86
2023/05/13 02:28:39;;;;;;;17.10;11.67;;;13.60;99.90;;;;;;5016139;28;20175;-85
2023/05/13 02:31:05;;;;;;;12.53;9.97;;;13.50;99.90;;;;;;5014695;28;20689;-85
2023/05/13 02:33:31;;;;;;;13.07;10.27;;;13.50;99.90;;;;;;5015508;28;20541;-85
2023/05/13 02:35:56;;;;;;;11.83;10.60;;;13.50;99.90;;;;;;5014939;28;20507;-85
2023/05/13 02:38:22;;;;;;;11.40;10.20;;;13.50;99.90;;;;;;5013681;28;20278;-85
2023/05/13 02:40:48;;;;;;;12.50;9.80;;;13.60;99.90;;;;;;5014699;28;20198;-80
2023/05/13 02:43:13;;;;;;;9.80;8.80;;;13.60;99.90;;;;;;5015136;28;20250;-81
2023/05/13 02:45:40;;;;;;;9.37;8.47;;;13.60;99.90;;;;;;5013437;28;20198;-81
2023/05/13 02:48:06;;;;;;;9.23;8.33;;;13.50;99.90;;;;;;5014684;28;20218;-82
2023/05/13 02:50:32;;;;;;;9.27;8.37;;;13.50;99.90;;;;;;5013297;28;20431;-80
2023/05/13 02:52:57;;;;;;;10.50;8.17;;;13.60;99.90;;;;;;5014812;28;20417;-81
2023/05/13 02:55:23;;;;;;;9.17;8.27;;;13.50;99.90;;;;;;5013391;28;20206;-82
2023/05/13 02:57:49;;;;;;;11.00;9.03;;;13.50;99.90;;;;;;5013343;28;20183;-81
2023/05/13 03:00:15;;;;;;;9.80;8.80;;;13.50;99.90;;;;;;5013246;28;20607;-82
2023/05/13 03:02:41;;;;;;;10.10;9.10;;;13.50;99.90;;;;;;5014781;28;20305;-85
2023/05/13 03:05:07;;;;;;;10.43;9.23;;;13.60;99.90;;;;;;5013116;28;20518;-85
2023/05/13 03:07:33;;;;;;;10.40;8.63;;;13.70;99.90;;;;;;5014426;28;20456;-82
2023/05/13 03:09:59;;;;;;;9.90;8.93;;;13.70;99.90;;;;;;5014267;28;20444;-84
2023/05/13 03:12:25;;;;;;;11.20;9.20;;;13.50;99.90;;;;;;5014402;28;20814;-84
2023/05/13 03:14:51;;;;;;;10.07;9.07;;;13.60;99.90;;;;;;5014743;28;20770;-80
2023/05/13 03:17:17;;;;;;;13.53;10.03;;;13.60;99.90;;;;;;5014369;28;20495;-82
2023/05/13 03:19:42;;;;;;;10.13;9.13;;;13.60;99.90;;;;;;5013135;28;20279;-85
2023/05/13 03:22:08;;;;;;;10.70;9.30;;;13.60;99.90;;;;;;5012984;28;20225;-82
2023/05/13 03:24:34;;;;;;;12.17;9.63;;;13.60;99.90;;;;;;5012968;28;20179;-81
2023/05/13 03:26:59;;;;;;;10.00;9.00;;;13.60;99.90;;;;;;5011973;28;20284;-81
2023/05/13 03:29:25;;;;;;;15.57;9.10;;;13.60;99.90;;;;;;5016061;28;20191;-81
2023/05/13 03:31:51;;;;;;;9.57;8.57;;;13.60;99.90;;;;;;5014265;28;20195;-85
2023/05/13 03:34:17;;;;;;;10.90;8.90;;;13.60;99.90;;;;;;5014687;28;20603;-86
2023/05/13 03:36:43;;;;;;;10.30;9.07;;;13.60;99.90;;;;;;5012686;28;20483;-81
2023/05/13 03:39:09;;;;;;;10.07;9.07;;;13.50;99.90;;;;;;5014399;28;20530;-81
2023/05/13 03:41:35;;;;;;;10.90;9.80;;;13.50;99.90;;;;;;5012684;28;20191;-81
2023/05/13 03:44:01;;;;;;;12.37;9.63;;;13.50;99.90;;;;;;5012884;28;20897;-82
2023/05/13 03:46:26;;;;;;;11.00;9.13;;;13.50;99.90;;;;;;5013883;28;20421;-85
2023/05/13 03:48:54;;;;;;;10.97;8.90;;;13.60;99.90;;;;;;5013809;28;20183;-86
2023/05/13 03:51:20;;;;;;;12.00;9.60;;;13.50;99.90;;;;;;5012580;28;20949;-85
2023/05/13 03:53:46;;;;;;;12.83;9.77;;;13.40;99.90;;;;;;5012721;28;20448;-81
2023/05/13 03:56:12;;;;;;;10.57;9.00;;;13.50;99.90;;;;;;5013845;28;20420;-85
2023/05/13 03:58:38;;;;;;;9.87;8.90;;;13.50;99.90;;;;;;5012595;28;20187;-87
2023/05/13 04:01:04;;;;;;;10.10;9.10;;;13.40;99.90;;;;;;5013715;28;20849;-86
2023/05/13 04:03:30;;;;;;;10.70;9.40;;;13.50;99.90;;;;;;5012597;28;20226;-85
2023/05/13 04:05:55;;;;;;;10.73;9.63;;;13.50;99.90;;;;;;5012451;28;20464;-81
2023/05/13 04:08:21;;;;;;;10.43;9.33;;;13.40;99.90;;;;;;5013596;28;20483;-85
2023/05/13 04:10:47;;;;;;;10.37;9.47;;;13.40;99.90;;;;;;5013561;28;20195;-85
2023/05/13 04:13:12;;;;;;;10.20;9.20;;;13.50;99.90;;;;;;5013825;28;20218;-81
2023/05/13 04:15:38;;;;;;;10.33;9.10;;;13.50;99.90;;;;;;5012289;28;20195;-81
2023/05/13 04:18:04;;;;;;;13.97;10.07;;;13.50;99.90;;;;;;5013565;28;20202;-86
2023/05/13 04:20:30;;;;;;;10.97;9.83;;;13.50;99.90;;;;;;5013539;28;20230;-84
2023/05/13 04:22:55;;;;;;;13.07;11.27;;;13.50;99.90;;;;;;5013535;28;20507;-81
2023/05/13 04:25:21;;;;;;;12.30;11.07;;;13.50;99.90;;;;;;5013723;28;20201;-80
2023/05/13 04:27:46;;;;;;;13.10;11.33;;;13.50;99.90;;;;;;5014353;28;20278;-81
2023/05/13 04:30:12;;;;;;;10.70;9.60;;;13.50;99.90;;;;;;5012153;28;20748;-86
2023/05/13 04:32:38;;;;;;;10.87;9.77;;;13.60;99.90;;;;;;5013445;28;20199;-85
2023/05/13 04:35:07;;;;;;;12.90;11.17;;;13.50;99.90;;;;;;5013410;28;20441;-85
2023/05/13 04:37:33;;;;;;;15.43;12.53;;;13.50;99.90;;;;;;5013729;28;20412;-85
2023/05/13 04:39:59;;;;;;;13.60;10.90;;;13.60;99.90;;;;;;5015931;28;20455;-85
2023/05/13 04:42:25;;;;;;;12.10;10.90;;;13.60;99.90;;;;;;5017104;28;20559;-84
2023/05/13 04:44:51;;;;;;;11.90;10.70;;;13.60;99.90;;;;;;5017405;28;20193;-85
2023/05/13 04:47:17;;;;;;;14.00;10.53;;;13.70;99.90;;;;;;5016880;28;20555;-83
2023/05/13 04:49:43;;;;;;;13.83;12.40;;;13.70;99.90;;;;;;5017322;28;20254;-81
2023/05/13 04:52:11;;;;;;;13.80;12.07;;;13.70;99.90;;;;;;5016920;28;20416;-84
2023/05/13 04:54:38;;;;;;;10.80;9.70;;;13.70;99.90;;;;;;5015597;28;20190;-80
2023/05/13 04:57:04;;;;;;;12.57;10.00;;;13.70;99.90;;;;;;5015279;28;20434;-85
2023/05/13 04:59:30;;;;;;;12.30;8.70;;;13.70;99.90;;;;;;5015422;28;20448;-82
2023/05/13 05:01:56;;;;;;;14.67;11.30;;;13.70;99.90;;;;;;5015308;28;20487;-85
2023/05/13 05:04:23;;;;;;;17.53;13.70;;;13.70;99.90;;;;;;5016575;28;20471;-85
2023/05/13 05:06:48;;;;;;;21.70;15.87;;;13.80;99.90;;;;;;5016620;28;20703;-85
2023/05/13 05:09:14;;;;;;;27.67;17.13;;;13.70;99.90;;;;;;5016891;28;20436;-81
2023/05/13 05:11:40;;;;;;;18.67;14.27;;;13.70;99.90;;;;;;5017419;28;20691;-82
2023/05/13 05:14:06;;;;;;;19.60;15.97;;;13.70;99.90;;;;;;5017035;28;20187;-84
2023/05/13 05:16:31;;;;;;;18.07;13.00;;;13.70;99.90;;;;;;5016432;28;20191;-81
2023/05/13 05:18:57;;;;;;;16.90;12.00;;;13.80;99.90;;;;;;5017624;28;20662;-81
2023/05/13 05:21:22;;;;;;;12.73;11.57;;;13.80;99.90;;;;;;5015681;28;20199;-81
2023/05/13 05:23:48;;;;;;;12.00;10.33;;;13.80;99.90;;;;;;5015081;28;20641;-85
2023/05/13 05:26:14;;;;;;;11.60;9.80;;;13.80;99.90;;;;;;5015095;28;20203;-86
2023/05/13 05:28:42;;;;;;;11.67;10.43;;;13.80;99.90;;;;;;5015090;28;20558;-86
2023/05/13 05:31:08;;;;;;;13.07;10.40;;;13.80;99.90;;;;;;5014752;28;20195;-85
2023/05/13 05:33:35;;;;;;;12.77;10.10;;;13.80;99.90;;;;;;5014731;28;20417;-85
2023/05/13 05:36:00;;;;;;;12.10;10.90;;;13.80;99.90;;;;;;5015925;28;20463;-81
2023/05/13 05:38:26;;;;;;;11.40;10.20;;;13.80;99.90;;;;;;5014699;28;20841;-81
2023/05/13 05:40:52;;;;;;;11.87;10.67;;;13.80;99.90;;;;;;5015960;28;20456;-85
2023/05/13 05:43:18;;;;;;;13.37;10.43;;;13.90;99.90;;;;;;5014609;28;20429;-81
2023/05/13 05:45:44;;;;;;;11.60;10.50;;;13.80;99.90;;;;;;5015826;28;20451;-85
2023/05/13 05:48:10;;;;;;;12.37;10.20;;;13.80;99.90;;;;;;5015260;28;20512;-85
2023/05/13 05:50:35;;;;;;;11.67;9.93;;;13.90;99.90;;;;;;5015423;28;20432;-81
2023/05/13 05:53:02;;;;;;;10.33;9.33;;;14.00;99.90;;;;;;5015742;28;20187;-81
2023/05/13 05:55:28;;;;;;;13.23;10.30;;;13.90;99.90;;;;;;5015663;28;20196;-81
2023/05/13 05:57:55;;;;;;;12.10;10.47;;;14.00;99.90;;;;;;5015628;28;20400;-81
2023/05/13 06:00:20;;;;;;;12.87;10.37;;;14.10;99.90;;;;;;5014289;28;20440;-85
2023/05/13 06:02:47;;;;;;;10.73;9.13;;;14.10;99.90;;;;;;5014288;28;21003;-81
2023/05/13 06:05:13;;;;;;;10.50;8.87;;;14.20;99.90;;;;;;5015277;28;20281;-85
2023/05/13 06:07:39;;;;;;;10.30;9.20;;;14.30;99.90;;;;;;5015298;28;20816;-85
2023/05/13 06:10:05;;;;;;;13.97;10.43;;;14.30;99.90;;;;;;5015228;28;20426;-84
2023/05/13 06:12:31;;;;;;;10.40;8.93;;;14.30;99.90;;;;;;5013987;28;20235;-81
2023/05/13 06:14:57;;;;;;;9.97;9.00;;;14.30;99.90;;;;;;5014221;28;20447;-85
2023/05/13 06:17:24;;;;;;;9.23;8.30;;;14.50;99.90;;;;;;5014036;28;20449;-86
2023/05/13 06:19:49;;;;;;;11.03;9.50;;;14.60;99.90;;;;;;5014240;28;20428;-81
2023/05/13 06:22:15;;;;;;;10.17;9.13;;;14.50;99.90;;;;;;5015471;28;20427;-87
2023/05/13 06:24:43;;;;;;;9.43;8.57;;;14.60;99.90;;;;;;5016140;28;20191;-85
2023/05/13 06:27:13;;;;;;;9.90;8.90;;;14.60;99.90;;;;;;5015132;28;20211;-85
2023/05/13 06:29:39;;;;;;;9.03;7.77;;;14.70;99.90;;;;;;5016096;28;20423;-82
2023/05/13 06:32:05;;;;;;;10.50;8.20;;;14.70;99.90;;;;;;5014560;28;20408;-82
2023/05/13 06:34:31;;;;;;;8.87;8.10;;;14.80;99.90;;;;;;5016491;28;20428;-82
2023/05/13 06:36:56;;;;;;;9.47;8.40;;;14.90;99.90;;;;;;5013517;28;20432;-84
2023/05/13 06:39:22;;;;;;;9.80;8.80;;;14.90;99.90;;;;;;5013608;28;20206;-85
2023/05/13 06:41:48;;;;;;;8.97;8.07;;;14.90;99.90;;;;;;5014801;28;20238;-86
2023/05/13 06:44:13;;;;;;;8.57;7.77;;;14.80;99.90;;;;;;5013909;28;20196;-85
2023/05/13 06:46:39;;;;;;;10.60;8.20;;;14.80;99.90;;;;;;5014685;28;20203;-86
2023/05/13 06:49:05;;;;;;;9.13;7.70;;;14.90;99.90;;;;;;5013541;28;20604;-86
2023/05/13 06:51:32;;;;;;;9.27;7.83;;;14.90;99.90;;;;;;5013485;28;20194;-82
2023/05/13 06:53:58;;;;;;;8.80;7.90;;;14.90;99.90;;;;;;5013355;28;20655;-84
2023/05/13 06:56:24;;;;;;;9.37;7.70;;;14.90;99.90;;;;;;5014818;28;20496;-85
2023/05/13 06:58:51;;;;;;;13.43;7.70;;;14.90;99.90;;;;;;5013207;28;20429;-84
2023/05/13 07:01:17;;;;;;;8.87;8.07;;;14.90;99.90;;;;;;5012950;28;20436;-81
2023/05/13 07:03:43;;;;;;;10.20;7.43;;;14.90;99.90;;;;;;5013124;28;20487;-85
2023/05/13 07:06:08;;;;;;;10.23;7.43;;;15.10;99.90;;;;;;5014221;28;20552;-82
2023/05/13 07:08:34;;;;;;;8.50;7.70;;;15.20;99.90;;;;;;5014281;28;20752;-82
2023/05/13 07:11:00;;;;;;;7.90;7.10;;;15.20;99.90;;;;;;5013016;28;20638;-85
2023/05/13 07:13:25;;;;;;;8.73;7.60;;;15.30;99.90;;;;;;5014499;28;20183;-85
2023/05/13 07:15:51;;;;;;;7.77;6.83;;;15.30;99.90;;;;;;5014110;28;20191;-82
2023/05/13 07:18:17;;;;;;;7.33;6.53;;;15.30;99.90;;;;;;5014223;28;20187;-82
2023/05/13 07:20:43;;;;;;;10.73;7.50;;;15.30;99.90;;;;;;5012833;28;20551;-85
2023/05/13 07:23:09;;;;;;;7.30;6.70;;;15.30;99.90;;;;;;5014233;28;20183;-85
2023/05/13 07:25:34;;;;;;;8.23;7.23;;;15.30;99.90;;;;;;5014095;28;20183;-85
2023/05/13 07:28:00;;;;;;;7.60;6.80;;;15.40;99.90;;;;;;5014059;28;20473;-86
2023/05/13 07:30:26;;;;;;;7.40;6.70;;;15.40;99.90;;;;;;5012813;28;20199;-86
2023/05/13 07:32:52;;;;;;;7.47;6.87;;;15.50;99.90;;;;;;5013969;28;20174;-85
2023/05/13 07:35:17;;;;;;;7.50;6.80;;;15.50;99.90;;;;;;5014030;28;20469;-82
2023/05/13 07:37:43;;;;;;;10.00;6.77;;;15.60;99.90;;;;;;5013959;28;20284;-85
2023/05/13 07:40:09;;;;;;;7.63;6.93;;;15.70;99.90;;;;;;5014044;28;20191;-83
2023/05/13 07:42:36;;;;;;;9.03;7.00;;;15.70;99.90;;;;;;5012583;28;20409;-82
2023/05/13 07:45:02;;;;;;;8.43;7.20;;;15.70;99.90;;;;;;5013793;28;20435;-82
2023/05/13 07:47:28;;;;;;;7.93;7.20;;;15.80;99.90;;;;;;5012588;28;20461;-82
2023/05/13 07:49:54;;;;;;;8.40;7.60;;;15.70;99.90;;;;;;5012713;28;20507;-82
2023/05/13 07:52:19;;;;;;;6.90;6.30;;;15.70;99.90;;;;;;5014054;28;20178;-82
2023/05/13 07:54:45;;;;;;;6.97;6.20;;;15.60;99.90;;;;;;5012420;28;20942;-82
2023/05/13 07:57:10;;;;;;;7.60;6.90;;;15.60;99.90;;;;;;5013852;28;20182;-85
2023/05/13 07:59:36;;;;;;;8.60;7.20;;;15.60;99.90;;;;;;5012654;28;20179;-82
2023/05/13 08:02:02;;;;;;;8.40;7.17;;;15.50;99.90;;;;;;5012621;28;20175;-85
2023/05/13 08:04:28;;;;;;;8.03;7.20;;;15.60;99.90;;;;;;5013754;28;20287;-86
2023/05/13 08:06:53;;;;;;;8.30;7.50;;;15.70;99.90;;;;;;5012247;28;20207;-85
2023/05/13 08:09:19;;;;;;;8.53;7.73;;;15.80;99.90;;;;;;5014064;28;20425;-82
2023/05/13 08:11:45;;;;;;;9.13;8.30;;;15.90;99.90;;;;;;5012744;28;20254;-87
2023/05/13 08:14:10;;;;;;;9.30;8.40;;;15.90;99.90;;;;;;5018945;28;20187;-85
2023/05/13 08:16:36;;;;;;;9.27;8.37;;;15.90;99.90;;;;;;5017600;28;20187;-81
2023/05/13 08:19:02;;;;;;;9.93;8.93;;;15.90;99.90;;;;;;5018267;28;20648;-86
2023/05/13 08:21:28;;;;;;;9.37;8.50;;;15.90;99.90;;;;;;5016315;28;20445;-82
2023/05/13 08:23:54;;;;;;;9.67;8.67;;;15.90;99.90;;;;;;5017537;28;20439;-87
2023/05/13 08:26:20;;;;;;;9.60;8.67;;;15.90;99.90;;;;;;5017252;28;20222;-85
2023/05/13 08:28:45;;;;;;;10.57;9.53;;;15.90;99.90;;;;;;5016006;28;20191;-87
2023/05/13 08:31:12;;;;;;;11.13;8.67;;;15.90;99.90;;;;;;5017066;28;20552;-82
2023/05/13 08:33:38;;;;;;;10.20;9.07;;;16.00;99.90;;;;;;5016887;28;20185;-82
2023/05/13 08:36:04;;;;;;;10.07;9.07;;;16.00;99.90;;;;;;5014392;28;20475;-81
2023/05/13 08:38:32;;;;;;;11.90;10.70;;;15.90;99.90;;;;;;5015552;28;20954;-86
2023/05/13 08:40:58;;;;;;;11.43;10.23;;;15.80;99.90;;;;;;5014058;28;20840;-82
2023/05/13 08:43:26;;;;;;;11.83;10.17;;;15.80;99.90;;;;;;5013536;28;20436;-82
2023/05/13 08:45:53;;;;;;;11.07;10.00;;;15.80;99.90;;;;;;5013497;28;20908;-86
2023/05/13 08:48:20;;;;;;;11.53;10.23;;;15.80;99.90;;;;;;5013860;28;21052;-82
2023/05/13 08:50:46;;;;;;;11.57;10.40;;;15.90;99.90;;;;;;5013634;28;20429;-85
2023/05/13 08:53:12;;;;;;;9.83;8.93;;;15.90;99.90;;;;;;5013886;28;20425;-82
2023/05/13 08:55:41;;;;;;;11.27;9.57;;;15.90;99.90;;;;;;5014091;28;20424;-86
2023/05/13 08:58:07;;;;;;;9.73;8.73;;;16.10;99.90;;;;;;5011653;28;20432;-82
2023/05/13 09:00:33;;;;;;;9.90;9.00;;;16.10;99.90;;;;;;5012415;28;20596;-85
2023/05/13 09:03:00;;;;;;;11.63;10.53;;;16.20;99.90;;;;;;5012082;28;20195;-82
2023/05/13 09:05:25;;;;;;;10.20;9.20;;;16.30;99.90;;;;;;5011464;28;20554;-82
2023/05/13 09:07:52;;;;;;;11.07;10.07;;;16.20;99.90;;;;;;5013018;28;20516;-85
2023/05/13 09:10:19;;;;;;;12.43;9.73;;;16.20;99.90;;;;;;5014006;28;20206;-86
2023/05/13 09:12:50;;;;;;;10.83;9.80;;;16.10;99.90;;;;;;5016370;28;20500;-86
2023/05/13 09:15:25;;;;;;;10.40;9.40;;;16.10;99.90;;;;;;5015264;28;20437;-86
2023/05/13 09:18:13;;;;;;;9.90;9.00;;;16.10;99.90;;;;;;5016219;28;20408;-83
2023/05/13 09:20:38;;;;;;;14.43;10.23;;;16.00;99.90;;;;;;5014264;28;20803;-82
2023/05/13 09:23:09;;;;;;;11.40;10.30;;;16.10;99.90;;;;;;5016165;28;20520;-82
2023/05/13 09:25:36;;;;;;;10.93;10.10;;;16.10;99.90;;;;;;5003249;28;20211;-83
2023/05/13 09:28:04;;;;;;;12.03;10.23;;;16.20;99.90;;;;;;4978748;28;20496;-84
2023/05/13 09:30:35;;;;;;;12.03;10.73;;;16.20;99.90;;;;;;4974641;28;20529;-86
2023/05/13 09:33:03;;;;;;;12.30;11.20;;;16.20;99.90;;;;;;4973866;28;20438;-82
2023/05/13 09:35:31;;;;;;;11.60;10.50;;;16.30;99.90;;;;;;4977029;28;20430;-86
2023/05/13 09:37:57;;;;;;;12.97;10.87;;;16.40;99.90;;;;;;4975671;28;20438;-86
2023/05/13 09:40:23;;;;;;;11.50;10.40;;;16.40;99.90;;;;;;4975702;28;20450;-82
2023/05/13 09:42:49;;;;;;;13.43;11.70;;;16.50;99.90;;;;;;4976843;28;20464;-82
2023/05/13 09:45:16;;;;;;;13.37;12.17;;;16.40;99.90;;;;;;4976844;28;20423;-85
2023/05/13 09:47:42;;;;;;;13.53;12.33;;;16.40;99.90;;;;;;4975529;28;20219;-85
2023/05/13 09:50:10;;;;;;;13.07;11.83;;;16.30;99.90;;;;;;4975367;28;20434;-82
2023/05/13 09:52:37;;;;;;;13.37;12.10;;;16.30;99.90;;;;;;4974615;28;20433;-82
2023/05/13 09:55:07;;;;;;;12.30;11.20;;;16.40;99.90;;;;;;4974443;28;20867;-82
2023/05/13 09:57:33;;;;;;;12.83;11.43;;;16.40;99.90;;;;;;4973144;28;20421;-85
2023/05/13 10:00:00;;;;;;;13.00;11.53;;;16.50;99.90;;;;;;4975015;28;20453;-86
2023/05/13 10:02:26;;;;;;;13.67;12.33;;;16.60;99.90;;;;;;4973219;28;20457;-85
2023/05/13 10:04:55;;;;;;;13.30;12.00;;;16.70;99.90;;;;;;4972589;28;21019;-82
2023/05/13 10:07:25;;;;;;;13.13;11.73;;;16.80;99.90;;;;;;4973068;28;20554;-85
2023/05/13 10:09:53;;;;;;;14.33;12.27;;;16.90;99.90;;;;;;4973314;28;20525;-82
2023/05/13 10:12:21;;;;;;;13.10;11.90;;;17.00;99.90;;;;;;4973090;28;20423;-82
2023/05/13 10:14:51;;;;;;;13.67;12.10;;;17.10;99.90;;;;;;4973367;28;20477;-86
2023/05/13 10:17:21;;;;;;;12.77;11.70;;;17.30;99.90;;;;;;4974215;28;20411;-86
2023/05/13 10:19:53;;;;;;;13.37;12.00;;;17.30;99.90;;;;;;4975801;28;20416;-82
2023/05/13 10:22:31;;;;;;;13.30;12.07;;;17.50;99.90;;;;;;4974907;28;20414;-83
2023/05/13 10:24:58;;;;;;;12.77;11.67;;;17.60;99.90;;;;;;4975010;28;20460;-85
2023/05/13 10:27:28;;;;;;;12.00;11.00;;;17.60;99.90;;;;;;4976017;28;20502;-82
2023/05/13 10:29:55;;;;;;;12.90;11.70;;;17.60;99.90;;;;;;4974638;28;20450;-82
2023/05/13 10:32:23;;;;;;;12.63;11.50;;;17.70;99.90;;;;;;4974747;28;20431;-85
2023/05/13 10:34:54;;;;;;;13.67;12.27;;;17.70;99.90;;;;;;4974375;28;20422;-86
2023/05/13 10:37:58;;;;;;;13.23;12.13;;;17.80;99.90;;;;;;4975206;28;20782;-85
2023/05/13 10:41:03;;;;;;;12.07;10.93;;;17.80;99.90;;;;;;4976228;28;20769;-82
2023/05/13 10:43:31;;;;;;;14.00;12.67;;;17.90;99.90;;;;;;4974563;28;20438;-86
2023/05/13 10:46:04;;;;;;;13.70;12.40;;;18.00;99.90;;;;;;4975784;28;20454;-86
2023/05/13 10:48:47;;;;;;;13.00;11.80;;;18.10;99.90;;;;;;4974367;28;20859;-82
2023/05/13 10:51:14;;;;;;;13.80;12.40;;;18.20;99.90;;;;;;4975712;28;20958;-82
2023/05/13 10:53:49;;;;;;;13.73;12.33;;;18.30;99.90;;;;;;4975846;28;20468;-82
2023/05/13 10:56:18;;;;;;;13.30;12.07;;;18.40;99.90;;;;;;4974249;28;20450;-83
2023/05/13 10:58:57;;;;;;;13.70;12.30;;;18.40;99.90;;;;;;4974303;28;20443;-82
2023/05/13 11:01:42;;;;;;;14.53;13.10;;;18.40;99.90;;;;;;4974282;28;20445;-82
2023/05/13 11:04:14;;;;;;;13.97;12.67;;;18.50;99.90;;;;;;4975285;28;20447;-87
2023/05/13 11:06:42;;;;;;;12.90;11.70;;;18.60;99.90;;;;;;4974117;28;20468;-83
2023/05/13 11:09:13;;;;;;;14.13;12.63;;;18.60;99.90;;;;;;4975245;28;20792;-82
2023/05/13 11:11:40;;;;;;;11.70;10.60;;;18.60;99.90;;;;;;4974150;28;20500;-87
2023/05/13 11:14:25;;;;;;;12.87;11.67;;;18.60;99.90;;;;;;4975699;28;20419;-83
2023/05/13 11:17:00;;;;;;;12.73;11.53;;;18.70;99.90;;;;;;4973939;28;21008;-86
2023/05/13 11:19:28;;;;;;;13.33;12.00;;;18.70;99.90;;;;;;4974055;28;20467;-82
2023/05/13 11:22:15;;;;;;;11.47;10.37;;;18.70;99.90;;;;;;4973848;28;21030;-83
2023/05/13 11:24:44;;;;;;;13.00;11.63;;;18.70;99.90;;;;;;4977475;28;20434;-82
2023/05/13 11:27:22;;;;;;;13.10;11.80;;;18.60;99.90;;;;;;4973769;28;21035;-86
2023/05/13 11:29:54;;;;;;;12.03;10.83;;;18.60;99.90;;;;;;4974090;28;20428;-86
2023/05/13 11:32:56;;;;;;;12.50;11.30;;;18.60;99.90;;;;;;4973822;28;20425;-86
2023/05/13 11:35:30;;;;;;;12.57;11.27;;;18.70;99.90;;;;;;4973849;28;20985;-82
2023/05/13 11:37:58;;;;;;;12.23;11.10;;;18.70;99.90;;;;;;4973661;28;20948;-82
2023/05/13 11:40:32;;;;;;;12.90;11.60;;;18.70;99.90;;;;;;4973751;28;20455;-83
2023/05/13 11:42:58;;;;;;;14.53;10.93;;;18.60;99.90;;;;;;4974877;28;20417;-87
2023/05/13 11:45:26;;;;;;;12.50;11.30;;;18.60;99.90;;;;;;4973508;28;20459;-82
2023/05/13 11:47:52;;;;;;;12.03;10.43;;;18.60;99.90;;;;;;4972640;28;20476;-82
2023/05/13 11:50:29;;;;;;;11.60;10.50;;;18.70;99.90;;;;;;4973480;28;21039;-87
2023/05/13 11:52:57;;;;;;;12.37;11.27;;;18.80;99.90;;;;;;4973457;28;20495;-82
2023/05/13 11:55:31;;;;;;;12.30;11.20;;;18.80;99.90;;;;;;4973559;28;20776;-86
2023/05/13 11:57:58;;;;;;;12.13;11.13;;;18.90;99.90;;;;;;4973324;28;20424;-82
2023/05/13 12:00:28;;;;;;;12.20;11.00;;;18.90;99.90;;;;;;4973537;28;20448;-87
2023/05/13 12:02:54;;;;;;;15.00;11.50;;;19.00;99.90;;;;;;4974497;28;20954;-82
2023/05/13 12:05:20;;;;;;;10.90;9.90;;;19.00;99.90;;;;;;4975762;28;20459;-87
2023/05/13 12:07:47;;;;;;;11.40;10.27;;;19.00;99.90;;;;;;4974714;28;20477;-83
2023/05/13 12:10:13;;;;;;;10.83;9.80;;;19.10;99.90;;;;;;4973945;28;20452;-83
2023/05/13 12:12:40;;;;;;;12.07;10.90;;;19.10;99.90;;;;;;4974611;28;20421;-87
2023/05/13 12:15:11;;;;;;;10.97;9.97;;;19.10;99.90;;;;;;4972969;28;20641;-86
2023/05/13 12:17:37;;;;;;;11.67;10.47;;;19.20;99.90;;;;;;4973184;28;20416;-82
2023/05/13 12:20:07;;;;;;;10.33;9.40;;;19.20;99.90;;;;;;4974519;28;20938;-83
2023/05/13 12:22:34;;;;;;;9.97;9.00;;;19.30;99.90;;;;;;4972828;28;20516;-86
2023/05/13 12:25:04;;;;;;;11.60;10.50;;;19.30;99.90;;;;;;4972004;28;21065;-83
2023/05/13 12:27:30;;;;;;;11.87;10.87;;;19.30;99.90;;;;;;4974677;28;20458;-82
2023/05/13 12:29:56;;;;;;;12.80;11.20;;;19.40;99.90;;;;;;4974851;28;20501;-87
2023/05/13 12:32:23;;;;;;;12.57;11.47;;;19.40;99.90;;;;;;4973349;28;20196;-84
2023/05/13 12:34:50;;;;;;;12.77;11.67;;;19.40;99.90;;;;;;4973307;28;20235;-86